Terminal Aerodrome Forecast
Issued by NWS

Home | Current Version | Previous Version | Text Only | Print | Product List | Glossary On
Versions: 1 2 3 4 5 6 7 8 9 10 11 12 13 14 15
000
FTUS45 KTFX 241700
TAFLWT
TAF
KLWT 241721Z 2418/2518 28012KT P6SM OVC070
     FM250300 18007KT P6SM VCSH BKN050
     FM250900 14007KT P6SM SKC=

USA.gov is the U.S. government's official web portal to all federal, state and local government web resources and services.